sensor_id;sensor_type;location;lat;lon;timestamp;P1;durP1;ratioP1;P2;durP2;ratioP2
6834;SDS011;3455;42.150;24.734;2023-06-10T00:00:47;5.57;;;5.20;;
6834;SDS011;3455;42.150;24.734;2023-06-10T00:03:13;6.32;;;5.82;;
6834;SDS011;3455;42.150;24.734;2023-06-10T00:05:42;5.95;;;5.40;;
6834;SDS011;3455;42.150;24.734;2023-06-10T00:08:09;5.28;;;5.07;;
6834;SDS011;3455;42.150;24.734;2023-06-10T00:10:36;6.38;;;5.75;;
6834;SDS011;3455;42.150;24.734;2023-06-10T00:13:04;6.05;;;5.72;;
6834;SDS011;3455;42.150;24.734;2023-06-10T00:15:33;5.78;;;5.57;;
6834;SDS011;3455;42.150;24.734;2023-06-10T00:18:00;6.20;;;5.82;;
6834;SDS011;3455;42.150;24.734;2023-06-10T00:20:27;5.88;;;5.38;;
6834;SDS011;3455;42.150;24.734;2023-06-10T00:22:57;5.57;;;5.28;;
6834;SDS011;3455;42.150;24.734;2023-06-10T00:25:26;6.10;;;5.80;;
6834;SDS011;3455;42.150;24.734;2023-06-10T00:27:53;6.10;;;5.50;;
6834;SDS011;3455;42.150;24.734;2023-06-10T00:30:20;6.32;;;5.88;;
6834;SDS011;3455;42.150;24.734;2023-06-10T00:32:46;6.30;;;5.88;;
6834;SDS011;3455;42.150;24.734;2023-06-10T00:35:13;6.25;;;5.70;;
6834;SDS011;3455;42.150;24.734;2023-06-10T00:37:40;6.80;;;5.68;;
6834;SDS011;3455;42.150;24.734;2023-06-10T00:40:08;6.07;;;5.43;;
6834;SDS011;3455;42.150;24.734;2023-06-10T00:42:36;6.53;;;6.03;;
6834;SDS011;3455;42.150;24.734;2023-06-10T00:45:03;5.95;;;5.70;;
6834;SDS011;3455;42.150;24.734;2023-06-10T00:47:30;5.95;;;5.65;;
6834;SDS011;3455;42.150;24.734;2023-06-10T00:49:58;6.22;;;5.68;;
6834;SDS011;3455;42.150;24.734;2023-06-10T00:52:25;6.70;;;6.10;;
6834;SDS011;3455;42.150;24.734;2023-06-10T00:54:55;6.28;;;5.97;;
6834;SDS011;3455;42.150;24.734;2023-06-10T00:57:23;6.82;;;5.60;;
6834;SDS011;3455;42.150;24.734;2023-06-10T00:59:50;6.80;;;6.18;;
6834;SDS011;3455;42.150;24.734;2023-06-10T01:02:17;6.60;;;6.03;;
6834;SDS011;3455;42.150;24.734;2023-06-10T01:04:44;6.40;;;5.78;;
6834;SDS011;3455;42.150;24.734;2023-06-10T01:07:14;6.68;;;5.97;;
6834;SDS011;3455;42.150;24.734;2023-06-10T01:09:52;9.23;;;5.88;;
6834;SDS011;3455;42.150;24.734;2023-06-10T01:12:26;5.78;;;5.35;;
6834;SDS011;3455;42.150;24.734;2023-06-10T01:14:57;6.20;;;5.53;;
6834;SDS011;3455;42.150;24.734;2023-06-10T01:17:25;6.13;;;5.65;;
6834;SDS011;3455;42.150;24.734;2023-06-10T01:19:53;6.53;;;5.88;;
6834;SDS011;3455;42.150;24.734;2023-06-10T01:22:23;6.30;;;5.80;;
6834;SDS011;3455;42.150;24.734;2023-06-10T01:24:51;6.18;;;5.68;;
6834;SDS011;3455;42.150;24.734;2023-06-10T01:27:19;6.47;;;6.15;;
6834;SDS011;3455;42.150;24.734;2023-06-10T01:29:50;6.22;;;5.82;;
6834;SDS011;3455;42.150;24.734;2023-06-10T01:32:23;7.43;;;6.10;;
6834;SDS011;3455;42.150;24.734;2023-06-10T01:34:55;8.82;;;6.30;;
6834;SDS011;3455;42.150;24.734;2023-06-10T01:37:25;5.90;;;5.50;;
6834;SDS011;3455;42.150;24.734;2023-06-10T01:39:53;5.97;;;5.68;;
6834;SDS011;3455;42.150;24.734;2023-06-10T01:42:22;8.35;;;6.00;;
6834;SDS011;3455;42.150;24.734;2023-06-10T01:44:49;6.03;;;5.53;;
6834;SDS011;3455;42.150;24.734;2023-06-10T01:47:16;5.75;;;5.18;;
6834;SDS011;3455;42.150;24.734;2023-06-10T01:49:43;6.00;;;5.70;;
6834;SDS011;3455;42.150;24.734;2023-06-10T01:52:10;5.72;;;5.22;;
6834;SDS011;3455;42.150;24.734;2023-06-10T01:54:38;6.63;;;6.20;;
6834;SDS011;3455;42.150;24.734;2023-06-10T01:57:04;5.82;;;5.50;;
6834;SDS011;3455;42.150;24.734;2023-06-10T01:59:32;6.13;;;5.50;;
6834;SDS011;3455;42.150;24.734;2023-06-10T02:01:58;6.35;;;5.85;;
6834;SDS011;3455;42.150;24.734;2023-06-10T02:04:25;6.70;;;5.65;;
6834;SDS011;3455;42.150;24.734;2023-06-10T02:06:52;6.03;;;5.72;;
6834;SDS011;3455;42.150;24.734;2023-06-10T02:09:18;5.65;;;5.15;;
6834;SDS011;3455;42.150;24.734;2023-06-10T02:11:46;5.65;;;5.35;;
6834;SDS011;3455;42.150;24.734;2023-06-10T02:14:13;6.23;;;5.53;;
6834;SDS011;3455;42.150;24.734;2023-06-10T02:16:40;6.60;;;6.03;;
6834;SDS011;3455;42.150;24.734;2023-06-10T02:19:06;5.68;;;5.28;;
6834;SDS011;3455;42.150;24.734;2023-06-10T02:21:33;6.15;;;5.75;;
6834;SDS011;3455;42.150;24.734;2023-06-10T02:24:00;8.73;;;6.53;;
6834;SDS011;3455;42.150;24.734;2023-06-10T02:26:28;5.75;;;5.35;;
6834;SDS011;3455;42.150;24.734;2023-06-10T02:28:56;5.93;;;5.53;;
6834;SDS011;3455;42.150;24.734;2023-06-10T02:31:23;5.88;;;5.47;;
6834;SDS011;3455;42.150;24.734;2023-06-10T02:33:50;6.20;;;5.70;;
6834;SDS011;3455;42.150;24.734;2023-06-10T02:36:17;5.50;;;5.20;;
6834;SDS011;3455;42.150;24.734;2023-06-10T02:38:43;6.72;;;6.22;;
6834;SDS011;3455;42.150;24.734;2023-06-10T02:41:10;5.63;;;5.32;;
6834;SDS011;3455;42.150;24.734;2023-06-10T02:43:37;6.32;;;5.72;;
6834;SDS011;3455;42.150;24.734;2023-06-10T02:46:05;6.20;;;5.40;;
6834;SDS011;3455;42.150;24.734;2023-06-10T02:48:38;5.55;;;5.35;;
6834;SDS011;3455;42.150;24.734;2023-06-10T02:51:07;5.00;;;4.80;;
6834;SDS011;3455;42.150;24.734;2023-06-10T02:53:34;6.10;;;5.63;;
6834;SDS011;3455;42.150;24.734;2023-06-10T02:56:01;5.95;;;5.35;;
6834;SDS011;3455;42.150;24.734;2023-06-10T02:58:28;5.20;;;4.75;;
6834;SDS011;3455;42.150;24.734;2023-06-10T03:00:54;5.65;;;5.25;;
6834;SDS011;3455;42.150;24.734;2023-06-10T03:03:22;5.60;;;5.25;;
6834;SDS011;3455;42.150;24.734;2023-06-10T03:05:50;6.25;;;5.53;;
6834;SDS011;3455;42.150;24.734;2023-06-10T03:08:17;5.35;;;5.03;;
6834;SDS011;3455;42.150;24.734;2023-06-10T03:10:44;6.13;;;5.55;;
6834;SDS011;3455;42.150;24.734;2023-06-10T03:13:10;5.10;;;4.70;;
6834;SDS011;3455;42.150;24.734;2023-06-10T03:15:37;5.68;;;5.20;;
6834;SDS011;3455;42.150;24.734;2023-06-10T03:18:05;5.80;;;5.28;;
6834;SDS011;3455;42.150;24.734;2023-06-10T03:20:34;5.53;;;5.22;;
6834;SDS011;3455;42.150;24.734;2023-06-10T03:23:03;5.63;;;5.22;;
6834;SDS011;3455;42.150;24.734;2023-06-10T03:25:31;6.53;;;5.97;;
6834;SDS011;3455;42.150;24.734;2023-06-10T03:27:58;6.93;;;6.45;;
6834;SDS011;3455;42.150;24.734;2023-06-10T03:30:25;6.72;;;5.55;;
6834;SDS011;3455;42.150;24.734;2023-06-10T03:32:53;6.35;;;5.35;;
6834;SDS011;3455;42.150;24.734;2023-06-10T03:35:20;5.55;;;5.05;;
6834;SDS011;3455;42.150;24.734;2023-06-10T03:37:48;5.03;;;4.72;;
6834;SDS011;3455;42.150;24.734;2023-06-10T03:40:15;6.00;;;5.18;;
6834;SDS011;3455;42.150;24.734;2023-06-10T03:42:42;5.78;;;5.03;;
6834;SDS011;3455;42.150;24.734;2023-06-10T03:45:10;6.07;;;5.35;;
6834;SDS011;3455;42.150;24.734;2023-06-10T03:47:37;5.65;;;5.05;;
6834;SDS011;3455;42.150;24.734;2023-06-10T03:50:05;6.00;;;5.68;;
6834;SDS011;3455;42.150;24.734;2023-06-10T03:52:34;6.32;;;5.30;;
6834;SDS011;3455;42.150;24.734;2023-06-10T03:55:02;5.78;;;5.28;;
6834;SDS011;3455;42.150;24.734;2023-06-10T03:57:30;9.10;;;5.43;;
6834;SDS011;3455;42.150;24.734;2023-06-10T03:59:56;5.88;;;5.50;;
6834;SDS011;3455;42.150;24.734;2023-06-10T04:02:24;6.35;;;5.78;;
6834;SDS011;3455;42.150;24.734;2023-06-10T04:04:51;5.65;;;5.30;;
6834;SDS011;3455;42.150;24.734;2023-06-10T04:07:18;6.47;;;5.50;;
6834;SDS011;3455;42.150;24.734;2023-06-10T04:09:45;5.90;;;5.45;;
6834;SDS011;3455;42.150;24.734;2023-06-10T04:12:13;6.68;;;4.90;;
6834;SDS011;3455;42.150;24.734;2023-06-10T04:14:42;6.38;;;5.60;;
6834;SDS011;3455;42.150;24.734;2023-06-10T04:17:08;6.30;;;5.78;;
6834;SDS011;3455;42.150;24.734;2023-06-10T04:19:35;5.80;;;5.50;;
6834;SDS011;3455;42.150;24.734;2023-06-10T04:22:02;7.57;;;5.22;;
6834;SDS011;3455;42.150;24.734;2023-06-10T04:24:30;8.38;;;5.60;;
6834;SDS011;3455;42.150;24.734;2023-06-10T04:26:57;5.13;;;4.68;;
6834;SDS011;3455;42.150;24.734;2023-06-10T04:29:25;5.28;;;4.97;;
6834;SDS011;3455;42.150;24.734;2023-06-10T04:31:51;5.07;;;4.78;;
6834;SDS011;3455;42.150;24.734;2023-06-10T04:34:18;6.28;;;5.63;;
6834;SDS011;3455;42.150;24.734;2023-06-10T04:36:45;7.10;;;5.57;;
6834;SDS011;3455;42.150;24.734;2023-06-10T04:39:11;6.05;;;5.55;;
6834;SDS011;3455;42.150;24.734;2023-06-10T04:41:38;11.10;;;5.90;;
6834;SDS011;3455;42.150;24.734;2023-06-10T04:44:05;5.90;;;5.60;;
6834;SDS011;3455;42.150;24.734;2023-06-10T04:46:33;6.35;;;5.82;;
6834;SDS011;3455;42.150;24.734;2023-06-10T04:49:00;5.43;;;5.00;;
6834;SDS011;3455;42.150;24.734;2023-06-10T04:51:27;7.40;;;5.63;;
6834;SDS011;3455;42.150;24.734;2023-06-10T04:53:54;8.48;;;5.75;;
6834;SDS011;3455;42.150;24.734;2023-06-10T04:56:20;6.60;;;5.68;;
6834;SDS011;3455;42.150;24.734;2023-06-10T04:58:48;5.40;;;5.00;;
6834;SDS011;3455;42.150;24.734;2023-06-10T05:01:14;5.63;;;5.13;;
6834;SDS011;3455;42.150;24.734;2023-06-10T05:03:42;7.32;;;5.55;;
6834;SDS011;3455;42.150;24.734;2023-06-10T05:06:09;18.25;;;5.93;;
6834;SDS011;3455;42.150;24.734;2023-06-10T05:08:36;5.90;;;5.30;;
6834;SDS011;3455;42.150;24.734;2023-06-10T05:11:02;6.70;;;5.78;;
6834;SDS011;3455;42.150;24.734;2023-06-10T05:13:29;7.68;;;5.72;;
6834;SDS011;3455;42.150;24.734;2023-06-10T05:15:56;6.05;;;5.43;;
6834;SDS011;3455;42.150;24.734;2023-06-10T05:18:23;6.22;;;5.57;;
6834;SDS011;3455;42.150;24.734;2023-06-10T05:20:51;8.70;;;5.32;;
6834;SDS011;3455;42.150;24.734;2023-06-10T05:23:19;6.15;;;5.05;;
6834;SDS011;3455;42.150;24.734;2023-06-10T05:25:45;5.95;;;5.32;;
6834;SDS011;3455;42.150;24.734;2023-06-10T05:28:13;21.20;;;9.23;;
6834;SDS011;3455;42.150;24.734;2023-06-10T05:30:39;6.50;;;5.88;;
6834;SDS011;3455;42.150;24.734;2023-06-10T05:33:06;6.95;;;5.93;;
6834;SDS011;3455;42.150;24.734;2023-06-10T05:35:33;11.23;;;6.15;;
6834;SDS011;3455;42.150;24.734;2023-06-10T05:38:02;5.85;;;5.47;;
6834;SDS011;3455;42.150;24.734;2023-06-10T05:40:29;6.90;;;5.38;;
6834;SDS011;3455;42.150;24.734;2023-06-10T05:42:55;7.47;;;5.53;;
6834;SDS011;3455;42.150;24.734;2023-06-10T05:45:23;6.75;;;6.07;;
6834;SDS011;3455;42.150;24.734;2023-06-10T05:47:49;5.40;;;5.10;;
6834;SDS011;3455;42.150;24.734;2023-06-10T05:50:17;5.82;;;5.07;;
6834;SDS011;3455;42.150;24.734;2023-06-10T05:52:43;6.00;;;5.60;;
6834;SDS011;3455;42.150;24.734;2023-06-10T05:55:12;6.32;;;5.22;;
6834;SDS011;3455;42.150;24.734;2023-06-10T05:57:40;6.45;;;5.63;;
6834;SDS011;3455;42.150;24.734;2023-06-10T06:00:08;6.47;;;5.90;;
6834;SDS011;3455;42.150;24.734;2023-06-10T06:02:35;7.20;;;5.65;;
6834;SDS011;3455;42.150;24.734;2023-06-10T06:05:02;5.65;;;5.00;;
6834;SDS011;3455;42.150;24.734;2023-06-10T06:07:29;5.90;;;5.38;;
6834;SDS011;3455;42.150;24.734;2023-06-10T06:09:56;6.13;;;5.63;;
6834;SDS011;3455;42.150;24.734;2023-06-10T06:12:24;5.38;;;5.00;;
6834;SDS011;3455;42.150;24.734;2023-06-10T06:14:53;6.47;;;5.97;;
6834;SDS011;3455;42.150;24.734;2023-06-10T06:17:20;8.02;;;5.38;;
6834;SDS011;3455;42.150;24.734;2023-06-10T06:19:46;6.95;;;5.53;;
6834;SDS011;3455;42.150;24.734;2023-06-10T06:22:13;10.73;;;5.15;;
6834;SDS011;3455;42.150;24.734;2023-06-10T06:24:40;6.25;;;5.65;;
6834;SDS011;3455;42.150;24.734;2023-06-10T06:27:07;6.72;;;6.20;;
6834;SDS011;3455;42.150;24.734;2023-06-10T06:29:35;6.00;;;5.60;;
6834;SDS011;3455;42.150;24.734;2023-06-10T06:32:01;5.80;;;5.40;;
6834;SDS011;3455;42.150;24.734;2023-06-10T06:34:28;6.88;;;6.00;;
6834;SDS011;3455;42.150;24.734;2023-06-10T06:36:55;7.05;;;5.88;;
6834;SDS011;3455;42.150;24.734;2023-06-10T06:39:22;23.85;;;7.25;;
6834;SDS011;3455;42.150;24.734;2023-06-10T06:41:49;6.57;;;5.13;;
6834;SDS011;3455;42.150;24.734;2023-06-10T06:44:16;8.13;;;5.75;;
6834;SDS011;3455;42.150;24.734;2023-06-10T06:46:44;7.55;;;5.13;;
6834;SDS011;3455;42.150;24.734;2023-06-10T06:49:11;5.70;;;5.30;;
6834;SDS011;3455;42.150;24.734;2023-06-10T06:51:37;6.13;;;5.68;;
6834;SDS011;3455;42.150;24.734;2023-06-10T06:54:04;6.15;;;5.28;;
6834;SDS011;3455;42.150;24.734;2023-06-10T06:56:31;7.75;;;5.30;;
6834;SDS011;3455;42.150;24.734;2023-06-10T06:58:58;6.38;;;5.70;;
6834;SDS011;3455;42.150;24.734;2023-06-10T07:01:24;6.93;;;5.60;;
6834;SDS011;3455;42.150;24.734;2023-06-10T07:03:53;8.70;;;5.43;;
6834;SDS011;3455;42.150;24.734;2023-06-10T07:06:19;6.60;;;5.47;;
6834;SDS011;3455;42.150;24.734;2023-06-10T07:08:46;6.13;;;5.53;;
6834;SDS011;3455;42.150;24.734;2023-06-10T07:13:48;11.55;;;5.75;;
6834;SDS011;3455;42.150;24.734;2023-06-10T07:16:15;6.20;;;5.28;;
6834;SDS011;3455;42.150;24.734;2023-06-10T07:18:42;6.80;;;6.18;;
6834;SDS011;3455;42.150;24.734;2023-06-10T07:21:10;6.85;;;5.40;;
6834;SDS011;3455;42.150;24.734;2023-06-10T07:23:38;9.45;;;5.50;;
6834;SDS011;3455;42.150;24.734;2023-06-10T07:26:08;12.00;;;5.38;;
6834;SDS011;3455;42.150;24.734;2023-06-10T07:28:36;7.32;;;5.30;;
6834;SDS011;3455;42.150;24.734;2023-06-10T07:31:03;6.82;;;5.00;;
6834;SDS011;3455;42.150;24.734;2023-06-10T07:33:29;5.40;;;4.82;;
6834;SDS011;3455;42.150;24.734;2023-06-10T07:35:56;8.88;;;4.70;;
6834;SDS011;3455;42.150;24.734;2023-06-10T07:38:24;8.73;;;5.50;;
6834;SDS011;3455;42.150;24.734;2023-06-10T07:40:51;8.23;;;5.40;;
6834;SDS011;3455;42.150;24.734;2023-06-10T07:43:18;7.72;;;5.20;;
6834;SDS011;3455;42.150;24.734;2023-06-10T07:45:45;5.22;;;4.82;;
6834;SDS011;3455;42.150;24.734;2023-06-10T07:48:12;9.60;;;4.85;;
6834;SDS011;3455;42.150;24.734;2023-06-10T07:50:38;8.23;;;4.93;;
6834;SDS011;3455;42.150;24.734;2023-06-10T07:53:05;5.05;;;4.60;;
6834;SDS011;3455;42.150;24.734;2023-06-10T07:55:33;5.43;;;5.13;;
6834;SDS011;3455;42.150;24.734;2023-06-10T07:58:00;5.03;;;4.57;;
6834;SDS011;3455;42.150;24.734;2023-06-10T08:00:27;5.57;;;4.35;;
6834;SDS011;3455;42.150;24.734;2023-06-10T08:02:54;4.70;;;4.30;;
6834;SDS011;3455;42.150;24.734;2023-06-10T08:05:20;8.45;;;4.72;;
6834;SDS011;3455;42.150;24.734;2023-06-10T08:07:47;5.68;;;4.90;;
6834;SDS011;3455;42.150;24.734;2023-06-10T08:10:14;4.72;;;3.95;;
6834;SDS011;3455;42.150;24.734;2023-06-10T08:12:42;4.63;;;4.22;;
6834;SDS011;3455;42.150;24.734;2023-06-10T08:15:09;6.13;;;4.22;;
6834;SDS011;3455;42.150;24.734;2023-06-10T08:17:37;4.30;;;3.95;;
6834;SDS011;3455;42.150;24.734;2023-06-10T08:20:04;4.50;;;4.13;;
6834;SDS011;3455;42.150;24.734;2023-06-10T08:22:32;4.20;;;3.90;;
6834;SDS011;3455;42.150;24.734;2023-06-10T08:24:59;5.85;;;4.05;;
6834;SDS011;3455;42.150;24.734;2023-06-10T08:27:26;4.97;;;4.20;;
6834;SDS011;3455;42.150;24.734;2023-06-10T08:29:54;4.60;;;4.20;;
6834;SDS011;3455;42.150;24.734;2023-06-10T08:32:21;5.65;;;3.53;;
6834;SDS011;3455;42.150;24.734;2023-06-10T08:34:48;6.07;;;3.58;;
6834;SDS011;3455;42.150;24.734;2023-06-10T08:37:14;4.57;;;3.78;;
6834;SDS011;3455;42.150;24.734;2023-06-10T08:39:41;4.22;;;3.50;;
6834;SDS011;3455;42.150;24.734;2023-06-10T08:42:11;5.05;;;3.80;;
6834;SDS011;3455;42.150;24.734;2023-06-10T08:44:50;6.50;;;4.00;;
6834;SDS011;3455;42.150;24.734;2023-06-10T08:47:22;7.53;;;3.88;;
6834;SDS011;3455;42.150;24.734;2023-06-10T08:49:50;5.43;;;3.80;;
6834;SDS011;3455;42.150;24.734;2023-06-10T08:52:17;5.88;;;3.58;;
6834;SDS011;3455;42.150;24.734;2023-06-10T08:54:46;5.55;;;4.70;;
6834;SDS011;3455;42.150;24.734;2023-06-10T08:57:18;4.00;;;3.60;;
6834;SDS011;3455;42.150;24.734;2023-06-10T08:59:46;3.83;;;3.63;;
6834;SDS011;3455;42.150;24.734;2023-06-10T09:02:15;3.63;;;3.30;;
6834;SDS011;3455;42.150;24.734;2023-06-10T09:04:44;4.28;;;3.78;;
6834;SDS011;3455;42.150;24.734;2023-06-10T09:07:13;3.70;;;3.40;;
6834;SDS011;3455;42.150;24.734;2023-06-10T09:09:40;3.85;;;3.42;;
6834;SDS011;3455;42.150;24.734;2023-06-10T09:12:09;3.78;;;3.58;;
6834;SDS011;3455;42.150;24.734;2023-06-10T09:14:36;4.43;;;3.90;;
6834;SDS011;3455;42.150;24.734;2023-06-10T09:17:03;4.20;;;3.75;;
6834;SDS011;3455;42.150;24.734;2023-06-10T09:19:31;3.22;;;3.03;;
6834;SDS011;3455;42.150;24.734;2023-06-10T09:21:59;3.97;;;3.60;;
6834;SDS011;3455;42.150;24.734;2023-06-10T09:24:25;3.28;;;3.10;;
6834;SDS011;3455;42.150;24.734;2023-06-10T09:26:54;5.68;;;3.28;;
6834;SDS011;3455;42.150;24.734;2023-06-10T09:29:28;3.35;;;3.15;;
6834;SDS011;3455;42.150;24.734;2023-06-10T09:31:55;4.00;;;3.60;;
6834;SDS011;3455;42.150;24.734;2023-06-10T09:34:24;4.22;;;3.90;;
6834;SDS011;3455;42.150;24.734;2023-06-10T09:36:53;4.57;;;4.13;;
6834;SDS011;3455;42.150;24.734;2023-06-10T09:39:20;5.63;;;4.28;;
6834;SDS011;3455;42.150;24.734;2023-06-10T09:41:47;7.97;;;4.28;;
6834;SDS011;3455;42.150;24.734;2023-06-10T09:44:14;11.93;;;3.95;;
6834;SDS011;3455;42.150;24.734;2023-06-10T09:46:42;15.45;;;4.82;;
6834;SDS011;3455;42.150;24.734;2023-06-10T09:49:12;7.18;;;4.35;;
6834;SDS011;3455;42.150;24.734;2023-06-10T09:51:44;6.32;;;4.38;;
6834;SDS011;3455;42.150;24.734;2023-06-10T09:54:17;4.38;;;4.07;;
6834;SDS011;3455;42.150;24.734;2023-06-10T09:56:46;4.68;;;3.60;;
6834;SDS011;3455;42.150;24.734;2023-06-10T09:59:13;4.55;;;3.80;;
6834;SDS011;3455;42.150;24.734;2023-06-10T10:01:41;3.58;;;3.38;;
6834;SDS011;3455;42.150;24.734;2023-06-10T10:04:08;5.70;;;3.53;;
6834;SDS011;3455;42.150;24.734;2023-06-10T10:06:35;5.93;;;3.97;;
6834;SDS011;3455;42.150;24.734;2023-06-10T10:09:03;4.78;;;3.55;;
6834;SDS011;3455;42.150;24.734;2023-06-10T10:11:31;5.65;;;3.80;;
6834;SDS011;3455;42.150;24.734;2023-06-10T10:14:00;9.07;;;4.30;;
6834;SDS011;3455;42.150;24.734;2023-06-10T10:16:32;3.88;;;3.58;;
6834;SDS011;3455;42.150;24.734;2023-06-10T10:19:04;4.32;;;3.95;;
6834;SDS011;3455;42.150;24.734;2023-06-10T10:21:34;8.10;;;4.50;;
6834;SDS011;3455;42.150;24.734;2023-06-10T10:24:08;4.28;;;3.83;;
6834;SDS011;3455;42.150;24.734;2023-06-10T10:26:40;5.18;;;4.10;;
6834;SDS011;3455;42.150;24.734;2023-06-10T10:29:10;4.35;;;4.05;;
6834;SDS011;3455;42.150;24.734;2023-06-10T10:31:41;6.65;;;3.92;;
6834;SDS011;3455;42.150;24.734;2023-06-10T10:34:09;4.43;;;4.13;;
6834;SDS011;3455;42.150;24.734;2023-06-10T10:36:39;5.78;;;4.20;;
6834;SDS011;3455;42.150;24.734;2023-06-10T10:39:07;6.32;;;3.75;;
6834;SDS011;3455;42.150;24.734;2023-06-10T10:41:35;6.60;;;3.90;;
6834;SDS011;3455;42.150;24.734;2023-06-10T10:44:05;7.07;;;4.43;;
6834;SDS011;3455;42.150;24.734;2023-06-10T10:46:41;8.02;;;5.80;;
6834;SDS011;3455;42.150;24.734;2023-06-10T10:49:09;4.10;;;3.78;;
6834;SDS011;3455;42.150;24.734;2023-06-10T10:51:38;12.60;;;4.45;;
6834;SDS011;3455;42.150;24.734;2023-06-10T10:54:27;4.40;;;4.07;;
6834;SDS011;3455;42.150;24.734;2023-06-10T10:57:11;4.25;;;3.80;;
6834;SDS011;3455;42.150;24.734;2023-06-10T10:59:51;4.78;;;3.63;;
6834;SDS011;3455;42.150;24.734;2023-06-10T11:02:31;5.68;;;4.60;;
6834;SDS011;3455;42.150;24.734;2023-06-10T11:05:00;4.03;;;3.67;;
6834;SDS011;3455;42.150;24.734;2023-06-10T11:07:30;6.55;;;4.07;;
6834;SDS011;3455;42.150;24.734;2023-06-10T11:09:58;6.03;;;4.00;;
6834;SDS011;3455;42.150;24.734;2023-06-10T11:12:25;7.18;;;4.45;;
6834;SDS011;3455;42.150;24.734;2023-06-10T11:14:56;6.85;;;4.00;;
6834;SDS011;3455;42.150;24.734;2023-06-10T11:17:26;6.30;;;3.67;;
6834;SDS011;3455;42.150;24.734;2023-06-10T11:19:52;8.90;;;4.03;;
6834;SDS011;3455;42.150;24.734;2023-06-10T11:22:19;3.88;;;3.47;;
6834;SDS011;3455;42.150;24.734;2023-06-10T11:24:49;5.20;;;3.70;;
6834;SDS011;3455;42.150;24.734;2023-06-10T11:27:17;5.57;;;4.10;;
6834;SDS011;3455;42.150;24.734;2023-06-10T11:30:00;7.03;;;4.03;;
6834;SDS011;3455;42.150;24.734;2023-06-10T11:32:45;5.22;;;3.30;;
6834;SDS011;3455;42.150;24.734;2023-06-10T11:35:16;3.33;;;3.03;;
6834;SDS011;3455;42.150;24.734;2023-06-10T11:37:45;3.50;;;3.30;;
6834;SDS011;3455;42.150;24.734;2023-06-10T11:40:13;5.53;;;2.90;;
6834;SDS011;3455;42.150;24.734;2023-06-10T11:42:40;3.70;;;3.35;;
6834;SDS011;3455;42.150;24.734;2023-06-10T11:45:14;5.82;;;3.75;;
6834;SDS011;3455;42.150;24.734;2023-06-10T11:47:49;4.65;;;3.28;;
6834;SDS011;3455;42.150;24.734;2023-06-10T11:50:27;4.80;;;3.45;;
6834;SDS011;3455;42.150;24.734;2023-06-10T11:52:55;12.30;;;4.10;;
6834;SDS011;3455;42.150;24.734;2023-06-10T11:55:23;3.25;;;2.85;;
6834;SDS011;3455;42.150;24.734;2023-06-10T11:57:50;3.25;;;3.15;;
6834;SDS011;3455;42.150;24.734;2023-06-10T12:00:23;4.20;;;3.25;;
6834;SDS011;3455;42.150;24.734;2023-06-10T12:02:57;3.78;;;2.95;;
6834;SDS011;3455;42.150;24.734;2023-06-10T12:05:24;3.50;;;3.30;;
6834;SDS011;3455;42.150;24.734;2023-06-10T12:10:39;3.58;;;3.38;;
6834;SDS011;3455;42.150;24.734;2023-06-10T12:13:07;4.35;;;3.95;;
6834;SDS011;3455;42.150;24.734;2023-06-10T12:15:35;3.58;;;3.38;;
6834;SDS011;3455;42.150;24.734;2023-06-10T12:18:02;3.70;;;3.40;;
6834;SDS011;3455;42.150;24.734;2023-06-10T12:20:30;3.85;;;3.50;;
6834;SDS011;3455;42.150;24.734;2023-06-10T12:22:59;3.85;;;3.35;;
6834;SDS011;3455;42.150;24.734;2023-06-10T12:25:26;3.53;;;3.28;;
6834;SDS011;3455;42.150;24.734;2023-06-10T12:27:55;3.75;;;3.55;;
6834;SDS011;3455;42.150;24.734;2023-06-10T12:30:23;4.50;;;3.45;;
6834;SDS011;3455;42.150;24.734;2023-06-10T12:32:53;4.07;;;3.50;;
6834;SDS011;3455;42.150;24.734;2023-06-10T12:35:20;3.85;;;3.60;;
6834;SDS011;3455;42.150;24.734;2023-06-10T12:37:55;3.90;;;3.60;;
6834;SDS011;3455;42.150;24.734;2023-06-10T12:40:27;4.07;;;3.65;;
6834;SDS011;3455;42.150;24.734;2023-06-10T12:42:56;4.70;;;4.00;;
6834;SDS011;3455;42.150;24.734;2023-06-10T12:45:26;5.20;;;4.65;;
6834;SDS011;3455;42.150;24.734;2023-06-10T12:48:05;4.53;;;4.15;;
6834;SDS011;3455;42.150;24.734;2023-06-10T12:50:34;4.30;;;3.90;;
6834;SDS011;3455;42.150;24.734;2023-06-10T12:53:02;8.35;;;4.60;;
6834;SDS011;3455;42.150;24.734;2023-06-10T12:55:29;5.97;;;4.32;;
6834;SDS011;3455;42.150;24.734;2023-06-10T12:57:56;9.90;;;4.40;;
6834;SDS011;3455;42.150;24.734;2023-06-10T13:00:23;7.07;;;5.13;;
6834;SDS011;3455;42.150;24.734;2023-06-10T13:02:51;8.38;;;7.70;;
6834;SDS011;3455;42.150;24.734;2023-06-10T13:05:19;5.68;;;4.85;;
6834;SDS011;3455;42.150;24.734;2023-06-10T13:07:46;5.50;;;4.78;;
6834;SDS011;3455;42.150;24.734;2023-06-10T13:10:14;5.60;;;5.10;;
6834;SDS011;3455;42.150;24.734;2023-06-10T13:12:41;4.88;;;4.43;;
6834;SDS011;3455;42.150;24.734;2023-06-10T13:15:08;7.57;;;4.13;;
6834;SDS011;3455;42.150;24.734;2023-06-10T13:17:35;6.93;;;4.78;;
6834;SDS011;3455;42.150;24.734;2023-06-10T13:20:02;6.63;;;4.18;;
6834;SDS011;3455;42.150;24.734;2023-06-10T13:22:31;4.28;;;3.97;;
6834;SDS011;3455;42.150;24.734;2023-06-10T13:25:00;5.90;;;4.75;;
6834;SDS011;3455;42.150;24.734;2023-06-10T13:27:28;4.97;;;4.65;;
6834;SDS011;3455;42.150;24.734;2023-06-10T13:29:54;5.63;;;3.90;;
6834;SDS011;3455;42.150;24.734;2023-06-10T13:32:21;5.28;;;4.38;;
6834;SDS011;3455;42.150;24.734;2023-06-10T13:34:48;4.55;;;4.15;;
6834;SDS011;3455;42.150;24.734;2023-06-10T13:37:15;3.83;;;3.63;;
6834;SDS011;3455;42.150;24.734;2023-06-10T13:39:44;6.40;;;3.88;;
6834;SDS011;3455;42.150;24.734;2023-06-10T13:42:12;4.38;;;4.07;;
6834;SDS011;3455;42.150;24.734;2023-06-10T13:44:39;4.00;;;3.65;;
6834;SDS011;3455;42.150;24.734;2023-06-10T13:47:06;4.35;;;3.72;;
6834;SDS011;3455;42.150;24.734;2023-06-10T13:49:33;5.78;;;3.95;;
6834;SDS011;3455;42.150;24.734;2023-06-10T13:51:59;5.00;;;3.92;;
6834;SDS011;3455;42.150;24.734;2023-06-10T13:54:26;3.90;;;3.70;;
6834;SDS011;3455;42.150;24.734;2023-06-10T13:56:54;4.15;;;3.78;;
6834;SDS011;3455;42.150;24.734;2023-06-10T13:59:21;4.38;;;4.07;;
6834;SDS011;3455;42.150;24.734;2023-06-10T14:01:48;4.30;;;3.80;;
6834;SDS011;3455;42.150;24.734;2023-06-10T14:04:14;4.05;;;3.60;;
6834;SDS011;3455;42.150;24.734;2023-06-10T14:06:41;4.68;;;4.03;;
6834;SDS011;3455;42.150;24.734;2023-06-10T14:09:08;3.90;;;3.60;;
6834;SDS011;3455;42.150;24.734;2023-06-10T14:11:35;4.28;;;3.85;;
6834;SDS011;3455;42.150;24.734;2023-06-10T14:14:03;7.90;;;4.20;;
6834;SDS011;3455;42.150;24.734;2023-06-10T14:16:30;4.07;;;3.88;;
6834;SDS011;3455;42.150;24.734;2023-06-10T14:18:57;4.35;;;4.03;;
6834;SDS011;3455;42.150;24.734;2023-06-10T14:21:24;3.92;;;3.63;;
6834;SDS011;3455;42.150;24.734;2023-06-10T14:23:50;4.30;;;3.85;;
6834;SDS011;3455;42.150;24.734;2023-06-10T14:26:18;3.63;;;3.30;;
6834;SDS011;3455;42.150;24.734;2023-06-10T14:28:46;4.25;;;3.92;;
6834;SDS011;3455;42.150;24.734;2023-06-10T14:31:15;4.53;;;4.00;;
6834;SDS011;3455;42.150;24.734;2023-06-10T14:33:42;3.97;;;3.78;;
6834;SDS011;3455;42.150;24.734;2023-06-10T14:36:09;6.47;;;3.80;;
6834;SDS011;3455;42.150;24.734;2023-06-10T14:38:36;3.50;;;3.30;;
6834;SDS011;3455;42.150;24.734;2023-06-10T14:41:02;3.72;;;3.15;;
6834;SDS011;3455;42.150;24.734;2023-06-10T14:43:29;4.18;;;3.78;;
6834;SDS011;3455;42.150;24.734;2023-06-10T14:45:56;4.35;;;3.95;;
6834;SDS011;3455;42.150;24.734;2023-06-10T14:48:24;3.72;;;3.42;;
6834;SDS011;3455;42.150;24.734;2023-06-10T14:50:51;4.45;;;3.60;;
6834;SDS011;3455;42.150;24.734;2023-06-10T14:53:20;5.18;;;3.88;;
6834;SDS011;3455;42.150;24.734;2023-06-10T14:55:47;3.80;;;3.50;;
6834;SDS011;3455;42.150;24.734;2023-06-10T14:58:14;4.00;;;3.70;;
6834;SDS011;3455;42.150;24.734;2023-06-10T15:00:40;4.95;;;4.03;;
6834;SDS011;3455;42.150;24.734;2023-06-10T15:03:07;6.90;;;3.70;;
6834;SDS011;3455;42.150;24.734;2023-06-10T15:05:35;3.92;;;3.72;;
6834;SDS011;3455;42.150;24.734;2023-06-10T15:08:03;3.60;;;3.40;;
6834;SDS011;3455;42.150;24.734;2023-06-10T15:10:30;4.18;;;3.40;;